Crane Gaia — 3FXX2 — position and weather

sailwx.info

Track history (hours):
 
Tides and Currents Weather Stations Pressure Air Temp Water Temp Dewpoint Dewpoint Depression Visibility Wind Speed Wind Dir Waves Ship Positions

Crane Gaia

Last reported at 2015-Jan-31 19:30 UTC. Time now 2015-Feb-01 21:15 UTC.
Position N 31°00' E 122°26'.

Length 115 m; draft 5.2 m.

Type: Tanker. MMSI: 352461000.

Date/timePositionNaut miles runAvg speedWind from/ knotsBaromVisibWave heightAir tempDewpointWater temp
2015-Jan-31 19:30N 31°00' E 122°26'1313.2
2015-Jan-31 18:33N 31°03' E 122°12'1313.1
2015-Jan-31 17:33N 31°07' E 121°57'1514.5
2015-Jan-31 16:33N 31°17' E 121°45'1211.5
2015-Jan-31 15:34N 31°24' E 121°34'7 7.2
2015-Jan-31 14:34N 31°28' E 121°27'9 9.1
2015-Jan-31 13:34N 31°34' E 121°19'1313.0
2015-Jan-31 12:33N 31°42' E 121°08'1212.2
2015-Jan-31 11:33N 31°48' E 120°55'1413.8
2015-Jan-31 10:33N 32°00' E 120°47'1312.8
2015-Jan-31 09:33N 32°03' E 120°33'1211.6
2015-Jan-31 08:33N 31°58' E 120°20'1211.8
2015-Jan-31 07:33N 31°57' E 120°06'1212.1
2015-Jan-31 06:33N 32°04' E 119°55'1313.2
2015-Jan-31 05:33N 32°17' E 119°51'6 0.1
2015-Jan-29 03:09N 32°19' E 119°44'911.6
2015-Jan-29 02:22N 32°14' E 119°53'1213.0
2015-Jan-29 01:29N 32°03' E 119°56'1011.3
2015-Jan-29 00:34N 31°57' E 120°06'0 0.1
2015-Jan-28 23:31N 31°57' E 120°06'0 0.0
2015-Jan-28 22:31N 31°57' E 120°06'0 0.0
2015-Jan-28 21:28N 31°57' E 120°06'0 0.0
2015-Jan-28 04:07N 31°57' E 120°06'0 0.0
2015-Jan-28 03:19N 31°57' E 120°06'0 0.0
2015-Jan-28 02:19N 31°57' E 120°06'0 0.0
2015-Jan-28 01:31N 31°57' E 120°06'0 0.0
2015-Jan-28 00:31N 31°57' E 120°06'1 1.2
2015-Jan-27 23:33N 31°57' E 120°07'1 0.8
2015-Jan-27 22:24N 31°57' E 120°08'0 0.0
2015-Jan-27 21:30N 31°57' E 120°08'0 0.0
2015-Jan-27 20:33N 31°57' E 120°08'1 1.0
2015-Jan-27 19:33N 31°56' E 120°09'9 9.5
2015-Jan-27 18:33N 31°59' E 120°20'9 9.4
2015-Jan-27 17:33N 32°04' E 120°29'1010.5
2015-Jan-27 16:33N 32°00' E 120°40'10 9.7
2015-Jan-27 15:33N 31°58' E 120°51'1111.1
2015-Jan-27 14:33N 31°48' E 120°56'1010.1
2015-Jan-27 13:33N 31°44' E 121°07'1111.0
2015-Jan-27 12:33N 31°36' E 121°17'1212.2
2015-Jan-27 11:34N 31°28' E 121°27'7 7.2
2015-Jan-27 10:33N 31°24' E 121°34'9 9.4
2015-Jan-27 09:33N 31°18' E 121°43'1212.1
2015-Jan-27 08:33N 31°10' E 121°53'1212.1
2015-Jan-27 07:34N 31°04' E 122°05'1110.6
2015-Jan-27 06:33N 31°03' E 122°17'1110.7
2015-Jan-27 05:30N 31°00' E 122°30'  
2015-Jan-22 05:11N 34°50' E 139°53'812.4
2015-Jan-22 04:33N 34°53' E 139°45'1313.3
2015-Jan-22 03:33N 35°06' E 139°44'1313.1
2015-Jan-22 02:33N 35°19' E 139°43'4 3.8
2015-Jan-22 01:33N 35°23' E 139°41'0 0.0
2015-Jan-22 00:33N 35°23' E 139°41'10 9.7
2015-Jan-21 23:33N 35°14' E 139°47'913.1
2015-Jan-21 22:50N 35°05' E 139°44'113.7
2015-Jan-21 22:46N 35°05' E 139°43'313.5
2015-Jan-21 22:33N 35°03' E 139°41'  
Track history (hours):
 
Tides and Currents Weather Stations Pressure Air Temp Water Temp Dewpoint Dewpoint Depression Visibility Wind Speed Wind Dir Waves Ship Positions

Crane Gaia

Last reported at 2015-Jan-31 19:30 UTC. Time now 2015-Feb-01 21:15 UTC.
Position N 31°00' E 122°26'.

Length 115 m; draft 5.2 m.

Type: Tanker. MMSI: 352461000.

Date/timePositionNaut miles runAvg speedWind from/ knotsBaromVisibWave heightAir tempDewpointWater temp
2015-Jan-31 19:30N 31°00' E 122°26'1313.2
2015-Jan-31 18:33N 31°03' E 122°12'1313.1
2015-Jan-31 17:33N 31°07' E 121°57'1514.5
2015-Jan-31 16:33N 31°17' E 121°45'1211.5
2015-Jan-31 15:34N 31°24' E 121°34'7 7.2
2015-Jan-31 14:34N 31°28' E 121°27'9 9.1
2015-Jan-31 13:34N 31°34' E 121°19'1313.0
2015-Jan-31 12:33N 31°42' E 121°08'1212.2
2015-Jan-31 11:33N 31°48' E 120°55'1413.8
2015-Jan-31 10:33N 32°00' E 120°47'1312.8
2015-Jan-31 09:33N 32°03' E 120°33'1211.6
2015-Jan-31 08:33N 31°58' E 120°20'1211.8
2015-Jan-31 07:33N 31°57' E 120°06'1212.1
2015-Jan-31 06:33N 32°04' E 119°55'1313.2
2015-Jan-31 05:33N 32°17' E 119°51'6 0.1
2015-Jan-29 03:09N 32°19' E 119°44'911.6
2015-Jan-29 02:22N 32°14' E 119°53'1213.0
2015-Jan-29 01:29N 32°03' E 119°56'1011.3
2015-Jan-29 00:34N 31°57' E 120°06'0 0.1
2015-Jan-28 23:31N 31°57' E 120°06'0 0.0
2015-Jan-28 22:31N 31°57' E 120°06'0 0.0
2015-Jan-28 21:28N 31°57' E 120°06'0 0.0
2015-Jan-28 04:07N 31°57' E 120°06'0 0.0
2015-Jan-28 03:19N 31°57' E 120°06'0 0.0
2015-Jan-28 02:19N 31°57' E 120°06'0 0.0
2015-Jan-28 01:31N 31°57' E 120°06'0 0.0
2015-Jan-28 00:31N 31°57' E 120°06'1 1.2
2015-Jan-27 23:33N 31°57' E 120°07'1 0.8
2015-Jan-27 22:24N 31°57' E 120°08'0 0.0
2015-Jan-27 21:30N 31°57' E 120°08'0 0.0
2015-Jan-27 20:33N 31°57' E 120°08'1 1.0
2015-Jan-27 19:33N 31°56' E 120°09'9 9.5
2015-Jan-27 18:33N 31°59' E 120°20'9 9.4
2015-Jan-27 17:33N 32°04' E 120°29'1010.5
2015-Jan-27 16:33N 32°00' E 120°40'10 9.7
2015-Jan-27 15:33N 31°58' E 120°51'1111.1
2015-Jan-27 14:33N 31°48' E 120°56'1010.1
2015-Jan-27 13:33N 31°44' E 121°07'1111.0
2015-Jan-27 12:33N 31°36' E 121°17'1212.2
2015-Jan-27 11:34N 31°28' E 121°27'7 7.2
2015-Jan-27 10:33N 31°24' E 121°34'9 9.4
2015-Jan-27 09:33N 31°18' E 121°43'1212.1
2015-Jan-27 08:33N 31°10' E 121°53'1212.1
2015-Jan-27 07:34N 31°04' E 122°05'1110.6
2015-Jan-27 06:33N 31°03' E 122°17'1110.7
2015-Jan-27 05:30N 31°00' E 122°30'  
2015-Jan-22 05:11N 34°50' E 139°53'812.4
2015-Jan-22 04:33N 34°53' E 139°45'1313.3
2015-Jan-22 03:33N 35°06' E 139°44'1313.1
2015-Jan-22 02:33N 35°19' E 139°43'4 3.8
2015-Jan-22 01:33N 35°23' E 139°41'0 0.0
2015-Jan-22 00:33N 35°23' E 139°41'10 9.7
2015-Jan-21 23:33N 35°14' E 139°47'913.1
2015-Jan-21 22:50N 35°05' E 139°44'113.7
2015-Jan-21 22:46N 35°05' E 139°43'313.5
2015-Jan-21 22:33N 35°03' E 139°41'  

Dump ship's entire track history